Time;durP1;ratioP1;P1;durP2;ratioP2;P2;SDS_P1;SDS_P2;PMS_P1;PMS_P2;Temp;Humidity;BMP_temperature;BMP_pressure;BME280_temperature;BME280_humidity;BME280_pressure;Samples;Min_cycle;Max_cycle;Signal;HPM_P1;HPM_P2
2022/04/05 00:00:04;;;;;;;3.78;3.33;;;8.10;99.90;;;;;;4992794;28;20022;-58
2022/04/05 00:02:30;;;;;;;3.28;2.78;;;8.10;99.90;;;;;;4994280;28;20073;-57
2022/04/05 00:04:55;;;;;;;3.75;3.00;;;8.10;99.90;;;;;;4994327;28;20062;-55
2022/04/05 00:07:21;;;;;;;4.95;3.47;;;8.20;99.90;;;;;;4992748;28;20030;-55
2022/04/05 00:09:47;;;;;;;4.63;3.42;;;8.20;99.90;;;;;;4992882;28;20064;-57
2022/04/05 00:12:13;;;;;;;4.10;3.05;;;8.20;99.90;;;;;;4993101;28;20031;-56
2022/04/05 00:14:39;;;;;;;3.30;3.00;;;8.20;99.90;;;;;;4993525;28;20027;-57
2022/04/05 00:17:04;;;;;;;6.35;3.33;;;8.20;99.90;;;;;;4992690;28;20074;-54
2022/04/05 00:19:30;;;;;;;4.07;3.30;;;8.20;99.90;;;;;;4993848;28;20018;-57
2022/04/05 00:21:56;;;;;;;6.95;3.40;;;8.20;99.90;;;;;;4992553;28;20030;-55
2022/04/05 00:24:22;;;;;;;4.85;3.45;;;8.20;99.90;;;;;;4993761;28;20029;-58
2022/04/05 00:26:48;;;;;;;4.10;3.03;;;8.10;99.90;;;;;;4993778;28;20033;-57
2022/04/05 00:29:13;;;;;;;4.90;3.50;;;8.10;99.90;;;;;;4992568;28;20030;-57
2022/04/05 00:31:39;;;;;;;3.03;2.67;;;8.10;99.90;;;;;;4992647;28;20022;-57
2022/04/05 00:34:05;;;;;;;4.05;3.10;;;8.10;99.90;;;;;;4992782;28;20058;-56
2022/04/05 00:36:31;;;;;;;5.05;2.70;;;8.10;99.90;;;;;;4994006;28;20022;-56
2022/04/05 00:38:56;;;;;;;4.53;2.85;;;8.10;99.90;;;;;;4993809;28;20026;-57
2022/04/05 00:41:22;;;;;;;5.78;3.20;;;8.10;99.90;;;;;;4993593;28;20035;-57
2022/04/05 00:43:48;;;;;;;5.00;3.15;;;8.10;99.90;;;;;;4993801;28;20065;-56
2022/04/05 00:46:13;;;;;;;3.35;2.65;;;8.10;99.90;;;;;;4992434;28;20022;-55
2022/04/05 00:48:52;;;;;;;3.03;2.40;;;8.10;99.90;;;;;;4992457;28;20081;-52
2022/04/05 00:51:19;;;;;;;4.43;2.60;;;8.20;99.90;;;;;;4996394;28;20026;-58
2022/04/05 00:53:50;;;;;;;3.28;2.97;;;8.20;99.90;;;;;;4996385;28;20073;-57
2022/04/05 00:56:17;;;;;;;4.45;3.15;;;8.20;99.90;;;;;;4997547;28;20025;-58
2022/04/05 00:58:53;;;;;;;4.47;2.83;;;8.20;99.90;;;;;;4997240;28;20030;-57
2022/04/05 01:01:21;;;;;;;4.78;3.20;;;8.20;99.90;;;;;;4995886;28;20031;-55
2022/04/05 01:03:49;;;;;;;3.55;2.70;;;8.20;99.90;;;;;;4995931;28;20026;-58
2022/04/05 01:06:23;;;;;;;4.50;3.33;;;8.20;99.90;;;;;;4996626;28;20022;-55
2022/04/05 01:08:50;;;;;;;4.82;3.33;;;8.20;99.90;;;;;;4995971;28;20531;-54
2022/04/05 01:11:16;;;;;;;6.38;3.78;;;8.20;99.90;;;;;;4995464;28;20417;-57
2022/04/05 01:13:43;;;;;;;4.65;3.55;;;8.20;99.90;;;;;;5014655;28;20025;-55
2022/04/05 01:16:10;;;;;;;4.72;3.25;;;8.20;99.90;;;;;;5016554;28;20096;-57
2022/04/05 01:18:36;;;;;;;4.85;3.15;;;8.20;99.90;;;;;;5015614;28;20022;-56
2022/04/05 01:21:02;;;;;;;4.93;2.72;;;8.20;99.90;;;;;;5015165;28;20112;-57
2022/04/05 01:23:28;;;;;;;4.40;3.20;;;8.20;99.90;;;;;;5015362;28;20542;-59
2022/04/05 01:25:55;;;;;;;4.10;2.90;;;8.30;99.90;;;;;;5016215;28;20030;-60
2022/04/05 01:28:20;;;;;;;5.18;3.83;;;8.30;99.90;;;;;;5015375;28;20112;-59
2022/04/05 01:30:46;;;;;;;5.57;3.13;;;8.20;99.90;;;;;;5016318;28;20425;-58
2022/04/05 01:33:12;;;;;;;7.35;4.00;;;8.30;99.90;;;;;;5016304;28;20210;-54
2022/04/05 01:35:39;;;;;;;4.20;3.00;;;8.20;99.90;;;;;;5015222;28;20026;-60
2022/04/05 01:38:07;;;;;;;5.25;3.45;;;8.20;99.90;;;;;;5014402;28;20026;-58
2022/04/05 01:40:32;;;;;;;4.65;3.20;;;8.20;99.90;;;;;;5014723;28;20121;-58
2022/04/05 01:42:58;;;;;;;5.03;3.72;;;8.20;99.90;;;;;;5015179;28;20068;-59
2022/04/05 01:45:24;;;;;;;10.25;3.92;;;8.10;99.90;;;;;;5014776;28;20056;-58
2022/04/05 01:47:50;;;;;;;8.07;3.55;;;8.20;99.90;;;;;;5014716;28;20064;-59
2022/04/05 01:50:15;;;;;;;3.90;2.80;;;8.20;99.90;;;;;;5016071;28;20022;-58
2022/04/05 01:52:41;;;;;;;5.30;4.00;;;8.20;99.90;;;;;;5016322;28;20026;-57
2022/04/05 01:55:08;;;;;;;4.78;3.58;;;8.30;99.90;;;;;;5016436;28;20029;-59
2022/04/05 01:57:33;;;;;;;4.68;3.63;;;8.30;99.90;;;;;;5014579;28;20099;-59
2022/04/05 02:00:01;;;;;;;5.55;4.00;;;8.20;99.90;;;;;;5015720;28;20085;-54
2022/04/05 02:02:27;;;;;;;5.85;4.07;;;8.20;99.90;;;;;;5014480;28;20480;-55
2022/04/05 02:04:52;;;;;;;6.60;4.32;;;8.20;99.90;;;;;;5014453;28;20066;-53
2022/04/05 02:07:19;;;;;;;4.10;3.20;;;8.20;99.90;;;;;;5015876;28;20026;-54
2022/04/05 02:09:47;;;;;;;5.00;3.35;;;8.20;99.90;;;;;;5014287;28;20026;-58
2022/04/05 02:12:13;;;;;;;4.88;3.67;;;8.20;99.90;;;;;;5015297;28;20092;-59
2022/04/05 02:14:39;;;;;;;4.85;3.38;;;8.20;99.90;;;;;;5014513;28;20030;-59
2022/04/05 02:17:05;;;;;;;5.15;3.60;;;8.20;99.90;;;;;;5015312;28;20026;-55
2022/04/05 02:19:31;;;;;;;4.70;3.17;;;8.20;99.90;;;;;;5015593;28;20021;-59
2022/04/05 02:21:57;;;;;;;5.20;3.50;;;8.20;99.90;;;;;;5014332;28;20091;-58
2022/04/05 02:24:23;;;;;;;5.93;3.92;;;8.20;99.90;;;;;;5014109;28;20030;-55
2022/04/05 02:26:49;;;;;;;6.13;3.08;;;8.30;99.90;;;;;;5014258;28;20026;-58
2022/04/05 02:29:15;;;;;;;4.65;2.90;;;8.20;99.90;;;;;;5014120;28;20029;-58
2022/04/05 02:31:41;;;;;;;4.10;3.13;;;8.30;99.90;;;;;;5014967;28;20025;-56
2022/04/05 02:34:07;;;;;;;5.80;4.00;;;8.30;99.90;;;;;;5014745;28;20026;-56
2022/04/05 02:36:33;;;;;;;6.25;3.33;;;8.30;99.90;;;;;;5015288;28;20025;-58
2022/04/05 02:38:58;;;;;;;6.38;3.67;;;8.30;99.90;;;;;;5015252;28;20022;-58
2022/04/05 02:41:24;;;;;;;4.55;3.75;;;8.30;99.90;;;;;;5013740;28;20064;-58
2022/04/05 02:43:50;;;;;;;4.05;3.33;;;8.30;99.90;;;;;;5013791;28;20484;-55
2022/04/05 02:46:15;;;;;;;4.18;3.30;;;8.30;99.90;;;;;;5014937;28;20029;-55
2022/04/05 02:48:43;;;;;;;4.20;2.83;;;8.30;99.90;;;;;;5014040;28;20034;-56
2022/04/05 02:51:16;;;;;;;5.00;3.78;;;8.40;99.90;;;;;;5014162;28;20028;-59
2022/04/05 02:53:42;;;;;;;4.45;3.25;;;8.30;99.90;;;;;;5013895;28;20021;-58
2022/04/05 02:56:08;;;;;;;6.13;3.95;;;8.40;99.90;;;;;;5014381;28;20376;-56
2022/04/05 02:58:37;;;;;;;3.28;2.90;;;8.40;99.90;;;;;;5014782;28;20025;-58
2022/04/05 03:01:04;;;;;;;3.88;3.33;;;8.40;99.90;;;;;;5014342;28;20105;-55
2022/04/05 03:03:30;;;;;;;7.30;4.10;;;8.40;99.90;;;;;;5014774;28;20079;-57
2022/04/05 03:05:56;;;;;;;3.83;3.20;;;8.50;99.90;;;;;;5014349;28;20029;-58
2022/04/05 03:08:22;;;;;;;4.85;3.08;;;8.50;99.90;;;;;;5013225;28;20439;-55
2022/04/05 03:10:48;;;;;;;3.70;2.70;;;8.50;99.90;;;;;;5013203;28;20060;-59
2022/04/05 03:13:14;;;;;;;6.25;2.70;;;8.50;99.90;;;;;;5012472;28;20072;-57
2022/04/05 03:15:40;;;;;;;5.72;3.72;;;8.50;99.90;;;;;;5013112;28;20018;-58
2022/04/05 03:18:06;;;;;;;8.85;4.65;;;8.40;99.90;;;;;;5014830;28;20101;-59
2022/04/05 03:20:31;;;;;;;6.68;3.72;;;8.40;99.90;;;;;;5012987;28;20034;-58
2022/04/05 03:22:59;;;;;;;3.38;2.83;;;8.40;99.90;;;;;;5012903;28;20021;-54
2022/04/05 03:25:25;;;;;;;4.65;3.22;;;8.40;99.90;;;;;;5014534;28;20041;-58
2022/04/05 03:27:51;;;;;;;5.65;3.22;;;8.40;99.90;;;;;;5012374;28;20018;-58
2022/04/05 03:30:20;;;;;;;4.20;2.70;;;8.50;99.90;;;;;;5012762;28;20404;-59
2022/04/05 03:32:46;;;;;;;4.05;3.03;;;8.50;99.90;;;;;;5013941;28;20049;-59
2022/04/05 03:35:12;;;;;;;4.80;2.97;;;8.50;99.90;;;;;;5013801;28;20018;-54
2022/04/05 03:37:38;;;;;;;3.85;3.25;;;8.50;99.90;;;;;;5013994;28;20026;-53
2022/04/05 03:40:05;;;;;;;4.05;2.78;;;8.50;99.90;;;;;;5012675;28;20018;-57
2022/04/05 03:42:30;;;;;;;4.10;3.13;;;8.50;99.90;;;;;;5012564;28;20120;-55
2022/04/05 03:44:56;;;;;;;3.88;3.08;;;8.50;99.90;;;;;;5013442;28;20135;-55
2022/04/05 03:47:23;;;;;;;4.10;2.47;;;8.50;99.90;;;;;;5014406;28;20080;-57
2022/04/05 03:49:49;;;;;;;3.55;2.63;;;8.50;99.90;;;;;;5012443;28;20431;-58
2022/04/05 03:52:15;;;;;;;3.67;2.65;;;8.50;99.90;;;;;;5013646;28;20112;-58
2022/04/05 03:54:40;;;;;;;3.78;2.95;;;8.50;99.90;;;;;;5014029;28;20101;-59
2022/04/05 03:57:06;;;;;;;3.83;2.78;;;8.50;99.90;;;;;;5014018;28;20014;-59
2022/04/05 03:59:32;;;;;;;3.20;2.47;;;8.50;99.90;;;;;;5012335;28;20018;-58
2022/04/05 04:01:57;;;;;;;3.75;2.85;;;8.40;99.90;;;;;;5013585;28;20038;-59
2022/04/05 04:04:23;;;;;;;6.07;2.53;;;8.50;99.90;;;;;;5013580;28;20032;-56
2022/04/05 04:06:49;;;;;;;3.63;2.60;;;8.50;99.90;;;;;;5014042;28;20104;-54
2022/04/05 04:09:14;;;;;;;3.45;2.65;;;8.50;99.90;;;;;;5012265;28;20026;-59
2022/04/05 04:11:40;;;;;;;3.33;2.50;;;8.50;99.90;;;;;;5013577;28;20026;-60
2022/04/05 04:14:09;;;;;;;4.30;2.72;;;8.60;99.90;;;;;;5013451;28;20022;-60
2022/04/05 04:16:35;;;;;;;3.00;2.30;;;8.50;99.90;;;;;;5012220;28;20113;-58
2022/04/05 04:19:00;;;;;;;2.95;2.40;;;8.50;99.90;;;;;;5012264;28;20057;-59
2022/04/05 04:21:26;;;;;;;2.92;2.40;;;8.50;99.90;;;;;;5012440;28;20052;-60
2022/04/05 04:23:52;;;;;;;4.45;2.55;;;8.60;99.90;;;;;;5013959;28;20034;-60
2022/04/05 04:26:18;;;;;;;3.38;2.97;;;8.50;99.90;;;;;;5016305;28;20029;-58
2022/04/05 04:28:50;;;;;;;4.47;2.80;;;8.50;99.90;;;;;;5016353;28;20117;-59
2022/04/05 04:31:16;;;;;;;3.60;2.55;;;8.50;99.90;;;;;;5015807;28;20396;-59
2022/04/05 04:33:41;;;;;;;3.38;2.70;;;8.50;99.90;;;;;;5016104;28;20022;-57
2022/04/05 04:36:07;;;;;;;3.63;2.33;;;8.50;99.90;;;;;;5017283;28;20026;-59
2022/04/05 04:38:33;;;;;;;3.05;2.45;;;8.60;99.90;;;;;;5017092;28;20105;-56
2022/04/05 04:40:58;;;;;;;3.25;2.65;;;8.60;99.90;;;;;;5016333;28;20030;-58
2022/04/05 04:43:24;;;;;;;3.88;2.20;;;8.60;99.90;;;;;;5016138;28;20096;-56
2022/04/05 04:45:50;;;;;;;6.85;2.78;;;8.60;99.90;;;;;;5016994;28;20033;-59
2022/04/05 04:48:15;;;;;;;2.22;1.90;;;8.60;99.90;;;;;;5015639;28;20117;-59
2022/04/05 04:50:41;;;;;;;2.17;1.95;;;8.60;99.90;;;;;;5015597;28;20036;-59
2022/04/05 04:53:07;;;;;;;3.20;2.63;;;8.70;99.90;;;;;;5015657;28;20531;-59
2022/04/05 04:55:33;;;;;;;3.10;2.60;;;8.60;99.90;;;;;;5016904;28;20030;-58
2022/04/05 04:57:59;;;;;;;2.90;2.33;;;8.60;99.90;;;;;;5016983;28;20499;-59
2022/04/05 05:00:24;;;;;;;3.67;2.22;;;8.60;99.90;;;;;;5015582;28;20068;-58
2022/04/05 05:02:51;;;;;;;3.20;2.30;;;8.70;99.90;;;;;;5017208;28;20042;-59
2022/04/05 05:05:18;;;;;;;3.20;2.45;;;8.70;99.90;;;;;;5016245;28;20033;-57
2022/04/05 05:07:44;;;;;;;3.10;2.42;;;8.60;99.90;;;;;;5015539;28;20076;-58
2022/04/05 05:10:14;;;;;;;3.50;2.22;;;8.60;99.90;;;;;;5016527;28;20018;-58
2022/04/05 05:12:40;;;;;;;6.05;2.42;;;8.60;99.90;;;;;;5015083;28;20033;-59
2022/04/05 05:15:16;;;;;;;3.05;2.42;;;8.60;99.90;;;;;;5015428;28;20018;-54
2022/04/05 05:17:43;;;;;;;4.50;2.85;;;8.60;99.90;;;;;;5016014;28;20022;-57
2022/04/05 05:20:10;;;;;;;3.58;2.30;;;8.60;99.90;;;;;;5015406;28;20109;-59
2022/04/05 05:22:36;;;;;;;3.42;2.70;;;8.60;99.90;;;;;;5016154;28;20033;-60
2022/04/05 05:25:02;;;;;;;2.53;2.20;;;8.60;99.90;;;;;;5016199;28;20053;-59
2022/04/05 05:27:28;;;;;;;3.80;2.70;;;8.60;99.90;;;;;;5014943;28;20164;-60
2022/04/05 05:29:54;;;;;;;2.92;2.38;;;8.70;99.90;;;;;;5016097;28;20076;-60
2022/04/05 05:32:20;;;;;;;4.20;2.80;;;8.70;99.90;;;;;;5014534;28;20186;-60
2022/04/05 05:34:46;;;;;;;3.80;2.63;;;8.60;99.90;;;;;;5015300;28;20028;-60
2022/04/05 05:37:12;;;;;;;8.23;5.05;;;8.70;99.90;;;;;;5014434;28;20392;-60
2022/04/05 05:39:37;;;;;;;2.92;2.50;;;8.70;99.90;;;;;;5014307;28;20026;-58
2022/04/05 05:42:05;;;;;;;3.35;2.70;;;8.80;99.90;;;;;;5015830;28;20037;-60
2022/04/05 05:44:31;;;;;;;3.85;2.35;;;8.80;99.90;;;;;;5016044;28;20097;-60
2022/04/05 05:46:57;;;;;;;3.72;2.67;;;8.80;99.90;;;;;;5014645;28;20152;-59
2022/04/05 05:49:22;;;;;;;5.40;3.10;;;8.80;99.90;;;;;;5015423;28;20150;-58
2022/04/05 05:51:48;;;;;;;6.25;3.80;;;8.80;99.90;;;;;;5015547;28;20389;-56
2022/04/05 05:54:14;;;;;;;3.65;2.80;;;8.80;99.90;;;;;;5016087;28;20060;-57
2022/04/05 05:56:39;;;;;;;3.42;2.85;;;8.80;99.90;;;;;;5015584;28;20467;-59
2022/04/05 05:59:05;;;;;;;4.80;3.30;;;8.80;99.90;;;;;;5014340;28;20084;-56
2022/04/05 06:01:31;;;;;;;17.00;7.55;;;8.80;99.90;;;;;;5013924;28;20116;-57
2022/04/05 06:03:56;;;;;;;12.68;5.95;;;8.80;99.90;;;;;;5014210;28;20026;-54
2022/04/05 06:06:22;;;;;;;7.65;4.78;;;8.80;99.90;;;;;;5014213;28;20022;-57
2022/04/05 06:08:48;;;;;;;5.68;3.08;;;8.80;99.90;;;;;;5015694;28;20026;-55
2022/04/05 06:11:14;;;;;;;4.70;3.10;;;8.90;99.90;;;;;;5014829;28;20489;-59
2022/04/05 06:13:40;;;;;;;7.40;5.05;;;9.00;99.90;;;;;;5015521;28;20445;-56
2022/04/05 06:16:08;;;;;;;6.30;3.65;;;9.00;99.90;;;;;;5013984;28;20030;-57
2022/04/05 06:18:34;;;;;;;5.88;3.78;;;9.00;99.90;;;;;;5015203;28;20032;-57
2022/04/05 06:21:00;;;;;;;7.30;3.67;;;9.00;99.90;;;;;;5015029;28;20026;-56
2022/04/05 06:23:26;;;;;;;8.15;4.25;;;9.10;99.90;;;;;;5013886;28;20112;-54
2022/04/05 06:25:51;;;;;;;4.75;3.17;;;9.10;99.90;;;;;;5015056;28;20105;-56
2022/04/05 06:28:18;;;;;;;7.18;3.53;;;9.20;99.90;;;;;;5013661;28;20065;-56
2022/04/05 06:30:46;;;;;;;4.93;3.42;;;9.20;99.90;;;;;;5014777;28;20022;-57
2022/04/05 06:33:13;;;;;;;9.50;3.42;;;9.20;99.90;;;;;;5013582;28;20033;-58
2022/04/05 06:35:42;;;;;;;9.25;4.28;;;9.30;99.90;;;;;;5014555;28;20025;-57
2022/04/05 06:38:08;;;;;;;7.13;3.58;;;9.30;99.90;;;;;;5014102;28;20022;-61
2022/04/05 06:40:35;;;;;;;8.32;4.68;;;9.40;99.90;;;;;;5013424;28;20037;-57
2022/04/05 06:43:00;;;;;;;7.93;4.35;;;9.40;99.90;;;;;;5013851;28;20028;-59
2022/04/05 06:45:27;;;;;;;9.20;4.10;;;9.30;99.90;;;;;;5014574;28;20025;-56
2022/04/05 06:47:54;;;;;;;6.97;3.67;;;9.30;99.90;;;;;;5013785;28;20026;-60
2022/04/05 06:50:25;;;;;;;6.78;3.78;;;9.30;99.90;;;;;;5013758;28;20022;-59
2022/04/05 06:52:59;;;;;;;4.57;3.03;;;9.30;99.90;;;;;;5014243;28;20030;-59
2022/04/05 06:55:26;;;;;;;6.13;3.30;;;9.50;99.90;;;;;;5014097;28;20034;-60
2022/04/05 06:57:52;;;;;;;6.13;2.85;;;9.50;99.90;;;;;;5013236;28;20472;-60
2022/04/05 07:00:19;;;;;;;4.85;3.95;;;9.60;99.90;;;;;;5014781;28;20030;-58
2022/04/05 07:02:45;;;;;;;5.80;3.65;;;9.70;99.90;;;;;;5013167;28;20123;-57
2022/04/05 07:05:12;;;;;;;11.10;3.95;;;9.70;99.90;;;;;;5013163;28;20076;-60
2022/04/05 07:07:38;;;;;;;2.85;2.47;;;9.70;99.90;;;;;;5014252;28;20034;-57
2022/04/05 07:10:06;;;;;;;3.65;2.60;;;9.70;99.90;;;;;;5013030;28;20026;-58
2022/04/05 07:12:32;;;;;;;5.20;3.50;;;9.80;99.90;;;;;;5014175;28;20021;-57
2022/04/05 07:14:58;;;;;;;5.25;3.10;;;9.90;99.90;;;;;;5012909;28;20488;-56
2022/04/05 07:17:25;;;;;;;5.07;3.35;;;10.00;99.90;;;;;;5012943;28;20034;-56
2022/04/05 07:19:51;;;;;;;5.43;3.30;;;10.00;99.90;;;;;;5012833;28;20092;-58
2022/04/05 07:22:17;;;;;;;5.60;3.30;;;10.10;99.90;;;;;;5012801;28;20069;-58
2022/04/05 07:24:43;;;;;;;2.65;2.30;;;10.10;99.90;;;;;;5013170;28;20060;-58
2022/04/05 07:27:09;;;;;;;3.78;3.03;;;10.10;99.90;;;;;;5014103;28;20057;-58
2022/04/05 07:29:34;;;;;;;3.38;2.70;;;10.20;99.90;;;;;;5012929;28;20088;-58
2022/04/05 07:32:07;;;;;;;5.03;3.40;;;10.20;99.90;;;;;;5011389;28;20053;-64
2022/04/05 07:34:33;;;;;;;3.90;2.97;;;10.30;99.90;;;;;;4993302;28;20023;-67
2022/04/05 07:37:05;;;;;;;2.90;2.60;;;10.20;99.90;;;;;;4994238;28;20029;-68
2022/04/05 07:39:31;;;;;;;4.68;3.10;;;10.20;99.90;;;;;;4993120;28;20022;-70
2022/04/05 07:41:57;;;;;;;4.03;2.72;;;10.30;99.90;;;;;;4994701;28;20061;-69
2022/04/05 07:44:25;;;;;;;3.17;2.80;;;10.30;99.90;;;;;;4994267;28;20022;-69
2022/04/05 07:46:51;;;;;;;5.18;2.33;;;10.30;99.90;;;;;;4992947;28;20033;-69
2022/04/05 07:49:30;;;;;;;3.15;2.75;;;10.40;99.90;;;;;;4992865;28;20022;-70
2022/04/05 07:51:56;;;;;;;5.70;2.70;;;10.50;99.90;;;;;;4992751;28;20026;-68
2022/04/05 07:54:22;;;;;;;4.72;2.78;;;10.50;99.90;;;;;;4993663;28;20022;-67
2022/04/05 07:56:47;;;;;;;3.35;2.50;;;10.60;99.90;;;;;;5003004;28;20026;-67
2022/04/05 07:59:14;;;;;;;5.68;3.15;;;10.70;99.90;;;;;;5013354;28;20037;-69
2022/04/05 08:01:39;;;;;;;3.17;2.42;;;10.70;99.90;;;;;;5013570;28;20041;-67
2022/04/05 08:04:07;;;;;;;5.38;2.58;;;10.80;99.90;;;;;;5045456;28;20049;-67
2022/04/05 08:06:34;;;;;;;3.72;2.42;;;10.80;99.90;;;;;;5012776;28;20037;-71
2022/04/05 08:09:00;;;;;;;6.22;2.28;;;10.80;99.90;;;;;;5045351;28;20053;-68
2022/04/05 08:11:34;;;;;;;2.85;1.95;;;10.80;99.90;;;;;;5045658;28;20392;-67
2022/04/05 08:14:06;;;;;;;3.28;2.13;;;10.90;99.90;;;;;;5046275;28;20109;-67
2022/04/05 08:16:31;;;;;;;2.65;2.08;;;11.10;99.90;;;;;;5045172;28;20473;-63
2022/04/05 08:18:57;;;;;;;2.55;1.92;;;11.30;99.90;;;;;;5012635;28;20080;-64
2022/04/05 08:21:23;;;;;;;3.28;2.40;;;11.50;99.90;;;;;;5045264;28;20037;-65
2022/04/05 08:23:50;;;;;;;3.85;2.00;;;11.70;99.90;;;;;;5045098;28;20034;-67
2022/04/05 08:26:45;;;;;;;2.65;2.28;;;11.90;99.90;;;;;;5012501;28;20068;-66
2022/04/05 08:29:11;;;;;;;2.88;2.00;;;11.90;99.90;;;;;;5012192;28;20021;-66
2022/04/05 08:31:36;;;;;;;11.55;5.95;;;12.00;99.90;;;;;;5044903;28;20026;-62
2022/04/05 08:34:55;;;;;;;14.02;6.97;;;12.10;99.90;;;;;;5013297;28;20057;-62
2022/04/05 08:37:22;;;;;;;11.35;5.20;;;12.10;99.90;;;;;;5012876;28;20022;-63
2022/04/05 08:39:48;;;;;;;13.13;6.03;;;12.10;99.90;;;;;;5045401;28;20172;-61
2022/04/05 08:42:14;;;;;;;10.65;4.75;;;12.00;99.90;;;;;;5045039;28;20552;-64
2022/04/05 08:44:43;;;;;;;11.63;4.22;;;11.90;99.90;;;;;;5045262;28;20030;-65
2022/04/05 08:47:11;;;;;;;12.18;5.40;;;11.90;99.90;;;;;;5013552;28;20037;-63
2022/04/05 08:49:38;;;;;;;8.57;4.43;;;11.90;99.90;;;;;;5045375;28;20033;-64
2022/04/05 08:52:04;;;;;;;7.43;4.10;;;11.90;99.90;;;;;;5044706;28;20447;-64
2022/04/05 08:54:29;;;;;;;6.85;3.85;;;11.90;99.90;;;;;;5044328;28;20104;-63
2022/04/05 08:56:55;;;;;;;16.55;7.50;;;12.00;99.90;;;;;;5013043;28;20105;-58
2022/04/05 08:59:20;;;;;;;34.35;15.05;;;12.30;99.90;;;;;;5013037;28;20018;-60
2022/04/05 09:01:46;;;;;;;27.35;12.60;;;12.40;99.90;;;;;;5011533;28;20069;-59
2022/04/05 09:04:12;;;;;;;3.58;3.05;;;12.60;99.90;;;;;;5012906;28;20041;-58
2022/04/05 09:06:38;;;;;;;5.18;3.90;;;12.60;99.90;;;;;;5013033;28;20084;-59
2022/04/05 09:09:14;;;;;;;7.45;3.97;;;12.70;99.90;;;;;;5012091;28;20030;-58
2022/04/05 09:11:53;;;;;;;4.82;3.92;;;12.60;99.90;;;;;;5014353;28;20030;-60
2022/04/05 09:14:57;;;;;;;7.88;5.88;;;12.40;99.90;;;;;;5016511;28;20014;-52
2022/04/05 09:21:06;;;;;;;7.38;5.15;;;12.40;99.90;;;;;;5016554;28;20024;-59
2022/04/05 09:24:08;;;;;;;10.50;6.18;;;12.50;99.90;;;;;;5015979;28;20033;-55
2022/04/05 09:26:43;;;;;;;7.15;4.28;;;12.40;99.90;;;;;;5014958;28;20084;-55
2022/04/05 09:29:09;;;;;;;2.58;2.10;;;12.40;99.90;;;;;;5015797;28;20030;-59
2022/04/05 09:31:52;;;;;;;7.65;6.45;;;12.30;99.90;;;;;;5015146;28;20030;-57
2022/04/05 09:34:19;;;;;;;3.50;3.13;;;12.30;99.90;;;;;;5014869;28;20022;-59
2022/04/05 09:36:48;;;;;;;3.80;2.30;;;12.30;99.90;;;;;;5015134;28;20036;-60
2022/04/05 09:45:52;;;;;;;2.10;1.48;;;12.60;99.90;;;;;;5016288;28;20053;-56
2022/04/05 09:48:19;;;;;;;;;;;12.80;99.90;;;;;;5016218;28;20056;-60
2022/04/05 09:51:06;;;;;;;2.08;1.80;;;12.90;99.90;;;;;;5015633;28;19909;-54
2022/04/05 09:53:40;;;;;;;1.70;1.55;;;13.00;99.90;;;;;;5016056;28;20104;-54
2022/04/05 09:56:15;;;;;;;2.78;1.42;;;13.00;99.90;;;;;;5015743;28;20050;-57
2022/04/05 09:58:49;;;;;;;1.88;1.65;;;12.90;99.90;;;;;;5014777;28;20018;-61
2022/04/05 10:01:15;;;;;;;2.15;1.80;;;12.90;99.90;;;;;;5014317;28;20034;-53
2022/04/05 10:03:42;;;;;;;1.60;1.48;;;12.90;99.90;;;;;;5015604;28;20053;-52
2022/04/05 10:06:09;;;;;;;2.72;1.30;;;12.90;99.90;;;;;;5014220;28;20408;-55
2022/04/05 10:08:37;;;;;;;2.20;1.73;;;12.90;99.90;;;;;;5014108;28;20029;-54
2022/04/05 10:11:04;;;;;;;3.78;1.50;;;12.80;99.90;;;;;;5014258;28;20113;-57
2022/04/05 10:13:30;;;;;;;4.25;1.70;;;12.80;99.90;;;;;;5014092;28;20026;-52
2022/04/05 10:15:58;;;;;;;1.90;1.60;;;12.90;99.90;;;;;;5014949;28;20025;-52
2022/04/05 10:18:31;;;;;;;2.00;1.80;;;12.90;99.90;;;;;;5015628;28;20018;-52
2022/04/05 10:20:57;;;;;;;2.42;1.92;;;13.00;99.90;;;;;;5013901;28;20026;-53
2022/04/05 10:23:36;;;;;;;3.50;1.88;;;13.00;99.90;;;;;;5015223;28;20072;-54
2022/04/05 10:26:02;;;;;;;1.85;1.60;;;13.00;99.90;;;;;;5013931;28;20029;-51
2022/04/05 10:28:34;;;;;;;2.05;1.52;;;13.10;99.90;;;;;;5013881;28;20109;-56
2022/04/05 10:31:13;;;;;;;;;;;13.20;99.90;;;;;;5015257;28;20025;-57
2022/04/05 10:34:05;;;;;;;2.25;1.70;;;13.20;99.90;;;;;;5015126;28;19905;-58
2022/04/05 10:36:32;;;;;;;2.33;2.00;;;13.20;99.90;;;;;;4984576;28;20026;-55
2022/04/05 10:39:17;;;;;;;1.50;1.40;;;13.20;99.90;;;;;;5014952;28;20435;-54
2022/04/05 10:42:08;;;;;;;2.15;1.60;;;13.10;99.90;;;;;;5014740;28;20022;-55
2022/04/05 10:44:36;;;;;;;3.25;1.70;;;13.30;99.90;;;;;;5029985;28;20030;-57
2022/04/05 10:47:06;;;;;;;3.17;2.10;;;13.30;99.90;;;;;;5013742;28;20088;-63
2022/04/05 10:49:47;;;;;;;1.60;1.50;;;13.30;99.90;;;;;;5014874;28;20034;-63
2022/04/05 10:52:15;;;;;;;3.00;1.90;;;13.30;99.90;;;;;;5014692;28;20017;-63
2022/04/05 10:54:49;;;;;;;2.67;1.58;;;13.30;99.90;;;;;;5014634;28;20149;-62
2022/04/05 10:57:26;;;;;;;1.92;1.73;;;13.50;99.90;;;;;;5013434;28;20033;-63
2022/04/05 10:59:56;;;;;;;1.83;1.58;;;13.40;99.90;;;;;;5014165;28;20072;-54
2022/04/05 11:02:35;;;;;;;1.65;1.50;;;13.40;99.90;;;;;;5009010;28;20034;-56
2022/04/05 11:05:25;;;;;;;2.10;1.80;;;13.20;99.90;;;;;;4993598;28;20076;-54
2022/04/05 11:07:54;;;;;;;1.33;1.23;;;13.30;99.90;;;;;;4995377;28;20365;-54
2022/04/05 11:10:44;;;;;;;1.42;1.15;;;13.30;99.90;;;;;;4994016;28;20037;-54
2022/04/05 11:13:14;;;;;;;1.70;1.17;;;13.30;99.90;;;;;;4994768;28;20026;-59
2022/04/05 11:15:46;;;;;;;3.75;1.40;;;13.20;99.90;;;;;;4994318;28;20437;-57
2022/04/05 11:18:14;;;;;;;2.03;1.27;;;13.20;99.90;;;;;;4993888;28;20022;-51
2022/04/05 11:20:42;;;;;;;2.53;1.63;;;13.30;99.90;;;;;;4993997;28;20022;-58
2022/04/05 11:23:09;;;;;;;1.42;1.30;;;13.40;99.90;;;;;;4994634;28;20023;-52
2022/04/05 11:25:35;;;;;;;3.17;1.35;;;13.50;99.90;;;;;;4994459;28;20030;-59
2022/04/05 11:28:19;;;;;;;1.73;1.10;;;13.60;99.90;;;;;;4993237;28;20030;-63
2022/04/05 11:30:54;;;;;;;1.60;1.40;;;13.50;99.90;;;;;;4993053;28;20057;-63
2022/04/05 11:33:49;;;;;;;1.33;1.10;;;13.50;99.90;;;;;;4994465;28;20081;-65
2022/04/05 11:36:14;;;;;;;2.13;1.58;;;13.40;99.90;;;;;;4994375;28;20073;-65
2022/04/05 11:38:49;;;;;;;1.45;1.13;;;13.40;99.90;;;;;;4993035;28;20026;-63
2022/04/05 11:41:28;;;;;;;1.42;1.33;;;13.40;99.90;;;;;;4993044;28;20405;-61
2022/04/05 11:43:59;;;;;;;2.08;1.20;;;13.60;99.90;;;;;;4993052;28;20050;-61
2022/04/05 11:46:27;;;;;;;1.48;1.30;;;13.80;99.90;;;;;;4994282;28;20544;-61
2022/04/05 11:48:58;;;;;;;1.20;1.10;;;13.90;99.90;;;;;;4994508;28;20049;-62
2022/04/05 11:51:26;;;;;;;2.30;1.33;;;14.00;99.90;;;;;;4992708;28;20037;-59
2022/04/05 11:54:18;;;;;;;1.35;1.10;;;14.10;99.90;;;;;;4992808;28;20065;-62
2022/04/05 11:56:45;;;;;;;1.65;1.40;;;13.90;99.90;;;;;;4992884;28;20141;-62
2022/04/05 11:59:15;;;;;;;2.03;1.15;;;14.10;99.90;;;;;;4994062;28;20054;-62
2022/04/05 12:01:42;;;;;;;1.67;1.40;;;14.20;99.90;;;;;;4993069;28;20034;-65
2022/04/05 12:04:12;;;;;;;1.75;1.30;;;14.40;99.90;;;;;;4994265;28;20023;-62
2022/04/05 12:06:41;;;;;;;2.30;1.58;;;14.60;99.90;;;;;;4994231;28;20512;-62
2022/04/05 12:09:17;;;;;;;2.75;1.13;;;14.50;99.90;;;;;;4993902;28;20058;-62
2022/04/05 12:11:46;;;;;;;2.75;1.17;;;14.50;99.90;;;;;;4993730;28;20030;-62
2022/04/05 12:14:17;;;;;;;1.30;1.20;;;14.60;99.90;;;;;;4992892;28;20015;-62
2022/04/05 12:16:55;;;;;;;1.60;1.30;;;14.70;99.90;;;;;;4993186;28;20022;-62
2022/04/05 12:19:29;;;;;;;1.45;1.23;;;14.80;99.90;;;;;;4992663;28;20026;-58
2022/04/05 12:22:09;;;;;;;1.30;1.02;;;14.80;99.90;;;;;;4992700;28;20034;-61
2022/04/05 12:24:42;;;;;;;1.25;1.00;;;14.70;99.90;;;;;;4992900;28;20125;-62
2022/04/05 12:27:08;;;;;;;1.52;1.05;;;14.70;99.90;;;;;;4992684;28;20034;-61
2022/04/05 12:29:39;;;;;;;1.48;1.10;;;14.60;99.90;;;;;;4993810;28;20034;-61
2022/04/05 12:32:12;;;;;;;2.07;1.20;;;14.50;99.90;;;;;;4993896;28;20026;-62
2022/04/05 12:34:39;;;;;;;1.88;1.30;;;14.40;99.90;;;;;;5011254;28;20026;-60
2022/04/05 12:37:05;;;;;;;1.83;1.40;;;14.50;99.90;;;;;;5013644;28;20057;-61
2022/04/05 12:39:33;;;;;;;1.60;1.20;;;14.50;99.90;;;;;;5013851;28;20553;-62
2022/04/05 12:42:01;;;;;;;2.00;1.05;;;14.60;99.90;;;;;;5012140;28;20029;-62
2022/04/05 12:44:30;;;;;;;1.42;1.20;;;14.60;99.90;;;;;;5011960;28;20026;-62
2022/04/05 12:46:58;;;;;;;1.13;1.02;;;14.50;99.90;;;;;;5015733;28;20083;-61
2022/04/05 12:49:31;;;;;;;1.10;0.80;;;14.50;99.90;;;;;;5016985;28;20026;-62
2022/04/05 12:52:25;;;;;;;2.00;0.90;;;14.40;99.90;;;;;;5016856;28;20033;-61
2022/04/05 12:54:52;;;;;;;1.23;1.00;;;14.20;99.90;;;;;;5016877;28;20047;-62
2022/04/05 12:57:31;;;;;;;1.13;1.02;;;14.10;99.90;;;;;;5017044;28;20052;-62
2022/04/05 13:00:11;;;;;;;2.53;1.08;;;14.10;99.90;;;;;;5016820;28;20022;-61
2022/04/05 13:02:44;;;;;;;1.35;1.02;;;14.00;99.90;;;;;;5015295;28;20038;-61
2022/04/05 13:08:28;;;;;;;1.20;1.00;;;13.90;99.90;;;;;;5017249;28;20492;-55
2022/04/05 13:10:54;;;;;;;1.60;1.20;;;13.80;99.90;;;;;;5015165;28;20050;-51
2022/04/05 13:13:24;;;;;;;2.13;1.33;;;13.80;99.90;;;;;;5015312;28;20026;-59